Time;durP1;ratioP1;P1;durP2;ratioP2;P2;SDS_P1;SDS_P2;PMS_P1;PMS_P2;Temp;Humidity;BMP_temperature;BMP_pressure;BME280_temperature;BME280_humidity;BME280_pressure;Samples;Min_cycle;Max_cycle;Signal;HPM_P1;HPM_P2
2022/04/19 00:00:54;;;;;;;2.30;1.30;;;;;;;;;;6204816;23;20004;-52
2022/04/19 00:03:20;;;;;;;1.45;1.20;;;;;;;;;;6178263;23;20044;-49
2022/04/19 00:05:47;;;;;;;1.85;1.30;;;;;;;;;;6206009;23;20060;-49
2022/04/19 00:08:14;;;;;;;1.80;1.15;;;;;;;;;;6206142;23;20497;-52
2022/04/19 00:10:40;;;;;;;1.88;1.23;;;;;;;;;;6206893;23;20009;-49
2022/04/19 00:13:07;;;;;;;1.67;1.20;;;;;;;;;;6179316;23;20004;-51
2022/04/19 00:15:33;;;;;;;1.25;1.13;;;;;;;;;;6205825;23;20390;-50
2022/04/19 00:18:00;;;;;;;1.42;1.05;;;;;;;;;;6205097;23;20001;-50
2022/04/19 00:20:28;;;;;;;1.17;0.90;;;;;;;;;;6204604;23;20079;-52
2022/04/19 00:22:55;;;;;;;1.60;1.13;;;;;;;;;;6206185;23;20004;-50
2022/04/19 00:25:21;;;;;;;1.67;1.08;;;;;;;;;;6204920;23;20005;-53
2022/04/19 00:27:47;;;;;;;1.77;1.33;;;;;;;;;;6205634;23;20055;-49
2022/04/19 00:30:13;;;;;;;1.20;0.98;;;;;;;;;;6204630;23;20392;-49
2022/04/19 00:32:41;;;;;;;1.80;1.20;;;;;;;;;;6204869;23;20001;-51
2022/04/19 00:35:08;;;;;;;1.10;0.90;;;;;;;;;;6205300;23;20063;-52
2022/04/19 00:37:34;;;;;;;1.50;1.00;;;;;;;;;;6205715;23;20011;-49
2022/04/19 00:40:01;;;;;;;1.85;1.30;;;;;;;;;;6205123;23;20622;-51
2022/04/19 00:42:30;;;;;;;1.35;1.05;;;;;;;;;;6206384;23;20043;-50
2022/04/19 00:45:00;;;;;;;1.48;1.10;;;;;;;;;;6205691;23;20001;-48
2022/04/19 00:47:26;;;;;;;1.40;1.27;;;;;;;;;;6205954;23;20001;-48
2022/04/19 00:49:53;;;;;;;1.42;0.82;;;;;;;;;;6205243;23;20445;-49
2022/04/19 00:52:20;;;;;;;0.85;0.82;;;;;;;;;;6178721;23;20362;-48
2022/04/19 00:54:47;;;;;;;1.00;0.75;;;;;;;;;;6204780;23;20028;-52
2022/04/19 00:57:13;;;;;;;1.15;1.00;;;;;;;;;;6177824;23;20005;-50
2022/04/19 00:59:39;;;;;;;1.30;0.93;;;;;;;;;;6204083;23;20023;-51
2022/04/19 01:02:06;;;;;;;1.00;0.88;;;;;;;;;;6204636;23;20004;-49
2022/04/19 01:04:33;;;;;;;1.42;1.23;;;;;;;;;;6153052;23;20048;-49
2022/04/19 01:06:59;;;;;;;0.93;0.88;;;;;;;;;;6206519;23;20070;-51
2022/04/19 01:09:25;;;;;;;1.08;0.98;;;;;;;;;;6207443;23;20001;-47
2022/04/19 01:14:37;;;;;;;0.93;0.90;;;;;;;;;;6207407;23;20102;-50
2022/04/19 01:17:04;;;;;;;1.38;1.15;;;;;;;;;;6205509;23;20386;-51
2022/04/19 01:19:31;;;;;;;1.02;0.98;;;;;;;;;;6205231;23;20063;-50
2022/04/19 01:21:57;;;;;;;1.65;1.05;;;;;;;;;;6206240;23;20043;-49
2022/04/19 01:24:24;;;;;;;3.25;1.00;;;;;;;;;;6206136;23;20007;-49
2022/04/19 01:26:50;;;;;;;0.95;0.88;;;;;;;;;;6206007;23;20001;-51
2022/04/19 01:29:16;;;;;;;1.58;0.95;;;;;;;;;;6205455;23;20362;-50
2022/04/19 01:31:44;;;;;;;0.95;0.90;;;;;;;;;;6205358;23;20031;-50
2022/04/19 01:34:11;;;;;;;1.10;0.88;;;;;;;;;;6205701;23;20571;-51
2022/04/19 01:36:38;;;;;;;1.52;0.80;;;;;;;;;;6205780;23;20536;-49
2022/04/19 01:39:04;;;;;;;1.33;1.02;;;;;;;;;;6205321;23;20050;-51
2022/04/19 01:41:31;;;;;;;1.63;0.82;;;;;;;;;;6205667;23;20008;-51
2022/04/19 01:43:59;;;;;;;1.55;1.10;;;;;;;;;;6205629;23;20004;-49
2022/04/19 01:46:26;;;;;;;1.65;1.17;;;;;;;;;;6206482;23;20083;-51
2022/04/19 01:48:57;;;;;;;1.08;0.90;;;;;;;;;;6205476;23;20446;-50
2022/04/19 01:51:24;;;;;;;1.40;0.98;;;;;;;;;;6204936;23;20055;-51
2022/04/19 01:53:51;;;;;;;1.40;0.95;;;;;;;;;;6205490;23;20488;-52
2022/04/19 01:56:17;;;;;;;2.85;1.10;;;;;;;;;;6205209;23;20000;-49
2022/04/19 01:58:45;;;;;;;1.33;0.95;;;;;;;;;;6205719;23;20034;-51
2022/04/19 02:01:11;;;;;;;1.95;1.20;;;;;;;;;;6204447;23;20004;-50
2022/04/19 02:03:37;;;;;;;1.45;1.00;;;;;;;;;;6205537;23;20009;-48
2022/04/19 02:06:10;;;;;;;1.25;0.77;;;;;;;;;;6205081;23;20497;-46
2022/04/19 02:08:37;;;;;;;2.08;0.90;;;;;;;;;;6205372;23;20000;-46
2022/04/19 02:11:04;;;;;;;1.60;1.02;;;;;;;;;;6205120;23;20038;-47
2022/04/19 02:13:33;;;;;;;2.35;1.10;;;;;;;;;;6206059;23;20010;-50
2022/04/19 02:16:00;;;;;;;3.80;1.17;;;;;;;;;;6206099;23;20005;-50
2022/04/19 02:18:26;;;;;;;1.08;0.98;;;;;;;;;;6204160;23;20083;-47
2022/04/19 02:20:52;;;;;;;1.55;1.15;;;;;;;;;;6205700;23;20028;-50
2022/04/19 02:23:19;;;;;;;3.75;1.13;;;;;;;;;;6204326;23;20005;-51
2022/04/19 02:25:46;;;;;;;1.15;0.98;;;;;;;;;;6205050;23;20005;-50
2022/04/19 02:28:13;;;;;;;1.80;1.33;;;;;;;;;;6178618;23;20327;-48
2022/04/19 02:30:40;;;;;;;1.48;0.93;;;;;;;;;;6205763;23;20001;-47
2022/04/19 02:33:06;;;;;;;3.08;1.20;;;;;;;;;;6204794;23;20000;-48
2022/04/19 02:35:32;;;;;;;1.23;1.02;;;;;;;;;;6205209;23;20005;-47
2022/04/19 02:37:59;;;;;;;1.38;1.10;;;;;;;;;;6205595;23;20006;-51
2022/04/19 02:40:26;;;;;;;1.60;1.30;;;;;;;;;;6205206;23;20004;-49
2022/04/19 02:42:54;;;;;;;1.75;1.10;;;;;;;;;;6205570;23;20001;-48
2022/04/19 02:45:21;;;;;;;2.22;1.00;;;;;;;;;;6204422;23;20470;-51
2022/04/19 02:47:47;;;;;;;1.08;0.85;;;;;;;;;;6205664;23;20350;-47
2022/04/19 02:50:16;;;;;;;1.75;1.00;;;;;;;;;;6204900;23;20004;-47
2022/04/19 02:52:42;;;;;;;1.27;1.00;;;;;;;;;;6205202;23;20005;-49
2022/04/19 02:55:08;;;;;;;1.08;0.90;;;;;;;;;;6205681;23;20465;-47
2022/04/19 02:57:34;;;;;;;2.95;1.10;;;;;;;;;;6208451;23;20128;-48
2022/04/19 03:00:00;;;;;;;1.35;0.90;;;;;;;;;;6207743;23;20004;-47
2022/04/19 03:02:26;;;;;;;1.67;1.00;;;;;;;;;;6208979;23;20004;-50
2022/04/19 03:04:53;;;;;;;1.25;0.90;;;;;;;;;;6208773;23;20096;-47
2022/04/19 03:07:19;;;;;;;1.35;0.90;;;;;;;;;;6208165;23;20393;-50
2022/04/19 03:09:46;;;;;;;0.80;0.75;;;;;;;;;;6208134;23;20009;-49
2022/04/19 03:12:14;;;;;;;1.65;1.13;;;;;;;;;;6208382;23;20508;-48
2022/04/19 03:14:41;;;;;;;1.42;0.82;;;;;;;;;;6208915;23;20012;-51
2022/04/19 03:17:08;;;;;;;1.38;0.90;;;;;;;;;;6208269;23;20449;-48
2022/04/19 03:19:36;;;;;;;0.93;0.80;;;;;;;;;;6207691;23;20051;-47
2022/04/19 03:22:03;;;;;;;1.02;0.90;;;;;;;;;;6180591;23;20035;-51
2022/04/19 03:27:41;;;;;;;1.13;0.93;;;;;;;;;;6208655;23;20469;-48
2022/04/19 03:30:07;;;;;;;1.60;1.20;;;;;;;;;;6208870;23;20012;-48
2022/04/19 03:32:33;;;;;;;1.83;1.10;;;;;;;;;;6207728;23;20047;-50
2022/04/19 03:34:59;;;;;;;2.45;1.00;;;;;;;;;;6207936;23;20028;-50
2022/04/19 03:37:26;;;;;;;0.80;0.80;;;;;;;;;;6208059;23;20323;-49
2022/04/19 03:39:52;;;;;;;1.13;0.80;;;;;;;;;;6208426;23;20080;-51
2022/04/19 03:42:19;;;;;;;1.35;1.08;;;;;;;;;;6208344;23;20520;-50
2022/04/19 03:44:46;;;;;;;2.70;1.27;;;;;;;;;;6207197;23;20022;-48
2022/04/19 03:47:15;;;;;;;1.17;1.00;;;;;;;;;;6208651;23;20331;-47
2022/04/19 03:49:44;;;;;;;2.05;1.27;;;;;;;;;;6208756;23;20476;-50
2022/04/19 03:52:11;;;;;;;1.27;1.10;;;;;;;;;;6208936;23;20038;-50
2022/04/19 03:54:37;;;;;;;1.00;0.90;;;;;;;;;;6208267;23;20042;-47
2022/04/19 03:57:07;;;;;;;1.60;1.05;;;;;;;;;;6208542;23;20008;-48
2022/04/19 03:59:38;;;;;;;3.35;1.00;;;;;;;;;;6207933;23;20075;-48
2022/04/19 04:02:04;;;;;;;1.40;1.10;;;;;;;;;;6208204;23;20012;-46
2022/04/19 04:04:35;;;;;;;1.27;0.90;;;;;;;;;;6207333;23;20012;-48
2022/04/19 04:07:02;;;;;;;1.58;1.30;;;;;;;;;;6207733;23;20080;-47
2022/04/19 04:09:35;;;;;;;0.90;0.90;;;;;;;;;;6206133;23;20036;-49
2022/04/19 04:12:02;;;;;;;1.30;1.10;;;;;;;;;;6206717;23;20890;-48
2022/04/19 04:14:28;;;;;;;1.70;0.90;;;;;;;;;;6205774;23;20005;-47
2022/04/19 04:16:54;;;;;;;1.63;1.10;;;;;;;;;;6205261;23;20005;-46
2022/04/19 04:19:20;;;;;;;1.13;1.00;;;;;;;;;;6206561;23;20000;-46
2022/04/19 04:21:46;;;;;;;1.05;0.88;;;;;;;;;;6205697;23;20350;-49
2022/04/19 04:24:13;;;;;;;1.08;0.95;;;;;;;;;;6207439;23;20012;-52
2022/04/19 04:26:40;;;;;;;1.23;0.82;;;;;;;;;;6207206;23;19997;-48
2022/04/19 04:29:06;;;;;;;1.83;1.10;;;;;;;;;;6205962;23;20023;-46
2022/04/19 04:31:32;;;;;;;1.98;1.17;;;;;;;;;;6205963;23;20504;-50
2022/04/19 04:33:58;;;;;;;1.55;0.88;;;;;;;;;;6206599;23;20080;-48
2022/04/19 04:36:24;;;;;;;1.08;0.90;;;;;;;;;;6206374;23;20008;-48
2022/04/19 04:38:50;;;;;;;0.95;0.85;;;;;;;;;;6205833;23;20067;-50
2022/04/19 04:41:17;;;;;;;1.15;0.90;;;;;;;;;;6205882;23;20015;-50
2022/04/19 04:43:44;;;;;;;1.92;0.88;;;;;;;;;;6205385;23;20005;-50
2022/04/19 04:51:40;;;;;;;;;;;;;;;;;;6207153;23;20023;-50
2022/04/19 04:54:06;;;;;;;1.50;1.00;;;;;;;;;;6206103;23;19931;-48
2022/04/19 04:56:33;;;;;;;1.17;0.80;;;;;;;;;;6205972;23;20543;-46
2022/04/19 04:59:00;;;;;;;1.02;0.90;;;;;;;;;;6179792;23;20013;-46
2022/04/19 05:01:26;;;;;;;1.42;0.80;;;;;;;;;;6205754;23;20001;-50
2022/04/19 05:03:52;;;;;;;2.05;0.90;;;;;;;;;;6205263;23;20091;-47
2022/04/19 05:06:18;;;;;;;1.08;0.80;;;;;;;;;;6205735;23;20055;-50
2022/04/19 05:08:44;;;;;;;1.73;0.80;;;;;;;;;;6205754;23;20000;-48
2022/04/19 05:11:10;;;;;;;0.98;0.80;;;;;;;;;;6207092;23;20009;-49
2022/04/19 05:13:36;;;;;;;1.40;0.70;;;;;;;;;;6205596;23;20004;-49
2022/04/19 05:16:02;;;;;;;1.00;0.90;;;;;;;;;;6205809;23;20009;-50
2022/04/19 05:18:28;;;;;;;1.00;0.80;;;;;;;;;;6205641;23;20015;-47
2022/04/19 05:20:55;;;;;;;2.55;1.40;;;;;;;;;;6206010;23;20058;-50
2022/04/19 05:23:22;;;;;;;1.98;1.30;;;;;;;;;;6207065;23;20001;-51
2022/04/19 05:25:48;;;;;;;1.23;0.90;;;;;;;;;;6207344;23;20500;-51
2022/04/19 05:28:14;;;;;;;1.30;1.20;;;;;;;;;;6207594;23;20028;-47
2022/04/19 05:30:40;;;;;;;1.25;0.90;;;;;;;;;;6207592;23;20226;-51
2022/04/19 05:33:06;;;;;;;1.95;1.35;;;;;;;;;;6207585;23;20474;-50
2022/04/19 05:35:33;;;;;;;1.00;0.80;;;;;;;;;;6207035;23;20083;-47
2022/04/19 05:37:59;;;;;;;1.20;1.10;;;;;;;;;;6207354;23;20438;-49
2022/04/19 05:40:25;;;;;;;2.40;1.05;;;;;;;;;;6206229;23;20024;-49
2022/04/19 05:42:52;;;;;;;1.52;1.00;;;;;;;;;;6206838;23;20001;-49
2022/04/19 05:45:18;;;;;;;1.67;1.10;;;;;;;;;;6207161;23;20005;-51
2022/04/19 05:47:44;;;;;;;1.80;1.27;;;;;;;;;;6206534;23;20001;-50
2022/04/19 05:50:11;;;;;;;1.30;1.02;;;;;;;;;;6207782;23;19997;-48
2022/04/19 05:52:37;;;;;;;1.92;1.00;;;;;;;;;;6207189;23;20001;-52
2022/04/19 05:55:04;;;;;;;1.20;0.90;;;;;;;;;;6207444;23;20001;-51
2022/04/19 05:57:30;;;;;;;0.73;0.73;;;;;;;;;;6207491;23;20005;-50
2022/04/19 05:59:56;;;;;;;1.38;0.90;;;;;;;;;;6207296;23;20056;-48
2022/04/19 06:05:07;;;;;;;1.02;0.85;;;;;;;;;;6206374;23;20023;-49
2022/04/19 06:07:42;;;;;;;0.90;0.80;;;;;;;;;;6206334;23;20011;-50
2022/04/19 06:10:08;;;;;;;1.45;0.90;;;;;;;;;;6206890;23;20059;-51
2022/04/19 06:12:34;;;;;;;1.00;0.90;;;;;;;;;;6208333;23;20008;-51
2022/04/19 06:15:00;;;;;;;1.00;0.90;;;;;;;;;;6207739;23;20611;-51
2022/04/19 06:17:32;;;;;;;1.83;0.90;;;;;;;;;;6207617;23;20023;-51
2022/04/19 06:19:58;;;;;;;1.25;0.80;;;;;;;;;;6207816;23;20585;-51
2022/04/19 06:22:24;;;;;;;1.08;0.90;;;;;;;;;;6206345;23;20083;-50
2022/04/19 06:24:50;;;;;;;1.67;1.02;;;;;;;;;;6208154;23;20410;-51
2022/04/19 06:27:16;;;;;;;0.80;0.75;;;;;;;;;;6207961;23;20419;-51
2022/04/19 06:29:42;;;;;;;1.58;1.10;;;;;;;;;;6207454;23;20043;-50
2022/04/19 06:32:09;;;;;;;0.93;0.80;;;;;;;;;;6208387;23;20004;-50
2022/04/19 06:34:35;;;;;;;1.45;1.10;;;;;;;;;;6207791;23;20000;-49
2022/04/19 06:37:01;;;;;;;1.50;0.93;;;;;;;;;;6207033;23;20004;-51
2022/04/19 06:39:27;;;;;;;1.08;0.98;;;;;;;;;;6206855;23;20075;-51
2022/04/19 06:41:54;;;;;;;1.65;1.00;;;;;;;;;;6203916;23;20059;-50
2022/04/19 06:44:21;;;;;;;1.23;0.85;;;;;;;;;;6201436;23;20062;-50
2022/04/19 06:46:49;;;;;;;1.67;1.10;;;;;;;;;;6201850;23;20072;-50
2022/04/19 06:49:16;;;;;;;1.35;1.08;;;;;;;;;;6202976;23;20000;-52
2022/04/19 06:51:43;;;;;;;1.58;1.00;;;;;;;;;;6199355;23;20004;-48
2022/04/19 06:54:12;;;;;;;1.90;1.35;;;;;;;;;;6174717;23;20437;-50
2022/04/19 06:56:39;;;;;;;1.85;1.25;;;;;;;;;;6200219;23;20012;-48
2022/04/19 06:59:07;;;;;;;3.28;0.98;;;;;;;;;;6200258;23;20013;-50
2022/04/19 07:01:37;;;;;;;2.38;0.95;;;;;;;;;;6196902;23;20005;-51
2022/04/19 07:04:03;;;;;;;0.70;0.70;;;;;;;;;;6199966;23;20260;-47
2022/04/19 07:06:29;;;;;;;1.25;1.00;;;;;;;;;;6199838;23;20012;-52
2022/04/19 07:08:55;;;;;;;2.20;1.08;;;;;;;;;;6200137;23;20049;-48
2022/04/19 07:11:21;;;;;;;2.80;1.00;;;;;;;;;;6197102;23;20031;-50
2022/04/19 07:13:47;;;;;;;1.30;0.90;;;;;;;;;;6199711;23;20011;-51
2022/04/19 07:16:13;;;;;;;2.45;1.13;;;;;;;;;;6200470;23;20009;-52
2022/04/19 07:18:39;;;;;;;1.25;1.00;;;;;;;;;;6201064;23;20009;-51
2022/04/19 07:26:38;;;;;;;;;;;;;;;;;;6200074;23;20496;-51
2022/04/19 07:29:13;;;;;;;2.33;0.90;;;;;;;;;;6200667;23;20322;-50
2022/04/19 07:31:43;;;;;;;2.30;1.33;;;;;;;;;;6198690;23;20408;-47
2022/04/19 07:34:10;;;;;;;1.00;0.90;;;;;;;;;;6201459;23;20524;-52
2022/04/19 07:36:40;;;;;;;1.13;1.00;;;;;;;;;;6200280;23;20095;-52
2022/04/19 07:39:10;;;;;;;1.08;0.98;;;;;;;;;;6200900;23;20004;-52
2022/04/19 07:41:37;;;;;;;1.38;1.00;;;;;;;;;;6198228;23;20044;-52
2022/04/19 07:44:04;;;;;;;1.08;0.80;;;;;;;;;;6202162;23;20426;-52
2022/04/19 07:46:30;;;;;;;1.95;1.23;;;;;;;;;;6201772;23;20500;-51
2022/04/19 07:48:57;;;;;;;1.63;1.05;;;;;;;;;;6201990;23;20001;-52
2022/04/19 07:51:25;;;;;;;1.58;1.10;;;;;;;;;;6199782;23;20596;-49
2022/04/19 07:53:51;;;;;;;1.13;1.00;;;;;;;;;;6201413;23;20001;-52
2022/04/19 07:56:17;;;;;;;2.35;1.02;;;;;;;;;;6202072;23;20442;-52
2022/04/19 07:58:46;;;;;;;1.25;0.85;;;;;;;;;;6201618;23;20083;-51
2022/04/19 08:01:14;;;;;;;0.98;0.88;;;;;;;;;;6200571;23;20014;-51
2022/04/19 08:03:40;;;;;;;1.30;0.80;;;;;;;;;;6202025;23;20573;-50
2022/04/19 08:06:08;;;;;;;1.15;0.80;;;;;;;;;;6202386;23;20001;-51
2022/04/19 08:08:34;;;;;;;0.93;0.90;;;;;;;;;;6202125;23;20110;-51
2022/04/19 08:11:01;;;;;;;0.95;0.82;;;;;;;;;;6200251;23;20015;-52
2022/04/19 08:13:27;;;;;;;0.98;0.88;;;;;;;;;;6200847;23;20004;-51
2022/04/19 08:15:54;;;;;;;0.88;0.80;;;;;;;;;;6201937;23;20394;-48
2022/04/19 08:18:21;;;;;;;0.68;0.60;;;;;;;;;;6201421;23;20039;-52
2022/04/19 08:20:48;;;;;;;0.88;0.88;;;;;;;;;;6200572;23;20001;-50
2022/04/19 08:23:15;;;;;;;1.60;0.88;;;;;;;;;;6200009;23;20477;-51
2022/04/19 08:25:45;;;;;;;0.90;0.80;;;;;;;;;;6202756;23;20012;-51
2022/04/19 08:28:11;;;;;;;0.98;0.90;;;;;;;;;;6202591;23;20011;-51
2022/04/19 08:30:37;;;;;;;1.23;1.00;;;;;;;;;;6202333;23;20229;-53
2022/04/19 08:33:03;;;;;;;0.93;0.85;;;;;;;;;;6200497;23;20013;-48
2022/04/19 08:35:30;;;;;;;2.42;0.95;;;;;;;;;;6201353;23;20009;-51
2022/04/19 08:37:57;;;;;;;1.05;0.80;;;;;;;;;;6201225;23;20036;-50
2022/04/19 08:40:25;;;;;;;1.00;0.73;;;;;;;;;;6201299;23;20016;-49
2022/04/19 08:42:56;;;;;;;0.60;0.60;;;;;;;;;;6199094;23;20403;-50
2022/04/19 08:45:22;;;;;;;3.08;1.00;;;;;;;;;;6200935;23;20036;-53
2022/04/19 08:47:49;;;;;;;0.98;0.88;;;;;;;;;;6201306;23;20027;-52
2022/04/19 08:50:18;;;;;;;1.23;0.70;;;;;;;;;;6202158;23;20405;-51
2022/04/19 08:52:45;;;;;;;0.60;0.60;;;;;;;;;;6199196;23;20079;-51
2022/04/19 08:57:57;;;;;;;1.40;0.73;;;;;;;;;;6200517;23;20082;-48
2022/04/19 09:00:24;;;;;;;0.77;0.70;;;;;;;;;;6201158;23;20004;-52
2022/04/19 09:02:51;;;;;;;1.13;0.70;;;;;;;;;;6199178;23;20094;-52
2022/04/19 09:05:19;;;;;;;0.85;0.50;;;;;;;;;;6201852;23;20011;-51
2022/04/19 09:07:46;;;;;;;0.73;0.70;;;;;;;;;;6175896;23;20024;-52
2022/04/19 09:10:14;;;;;;;0.88;0.73;;;;;;;;;;6201952;23;20031;-51
2022/04/19 09:13:16;;;;;;;0.50;0.50;;;;;;;;;;6200210;23;20004;-51
2022/04/19 09:15:43;;;;;;;0.40;0.40;;;;;;;;;;6051566;23;20467;-52
2022/04/19 09:18:21;;;;;;;0.75;0.75;;;;;;;;;;6172599;23;20012;-51
2022/04/19 09:20:50;;;;;;;0.50;0.50;;;;;;;;;;6200286;23;20462;-51
2022/04/19 09:23:16;;;;;;;0.77;0.63;;;;;;;;;;6199980;23;20450;-53
2022/04/19 09:25:43;;;;;;;0.45;0.45;;;;;;;;;;6173989;23;20452;-51
2022/04/19 09:28:17;;;;;;;0.50;0.50;;;;;;;;;;6201991;23;20022;-52
2022/04/19 09:30:43;;;;;;;1.27;0.70;;;;;;;;;;6200207;23;20775;-52
2022/04/19 09:33:10;;;;;;;0.70;0.50;;;;;;;;;;6201242;23;20008;-52
2022/04/19 09:35:36;;;;;;;0.50;0.50;;;;;;;;;;6201227;23;20008;-51
2022/04/19 09:38:04;;;;;;;0.55;0.50;;;;;;;;;;6200946;23;20062;-51
2022/04/19 09:40:35;;;;;;;0.98;0.50;;;;;;;;;;6199884;23;20013;-51
2022/04/19 09:43:27;;;;;;;0.70;0.60;;;;;;;;;;6198895;23;20000;-50
2022/04/19 09:45:58;;;;;;;0.60;0.60;;;;;;;;;;6194174;23;20465;-51
2022/04/19 09:48:28;;;;;;;0.95;0.63;;;;;;;;;;6199980;23;20005;-52
2022/04/19 09:50:57;;;;;;;0.50;0.50;;;;;;;;;;6199550;23;20050;-52
2022/04/19 09:53:25;;;;;;;0.80;0.60;;;;;;;;;;6199842;23;20629;-50
2022/04/19 09:55:54;;;;;;;0.60;0.60;;;;;;;;;;6200671;23;20031;-52
2022/04/19 09:58:21;;;;;;;0.65;0.60;;;;;;;;;;6201331;23;20009;-51
2022/04/19 10:00:48;;;;;;;1.05;0.80;;;;;;;;;;6199517;23;20032;-48
2022/04/19 10:08:45;;;;;;;1.13;0.57;;;;;;;;;;6200325;23;20039;-52
2022/04/19 10:11:12;;;;;;;0.73;0.60;;;;;;;;;;6200108;23;20009;-50
2022/04/19 10:13:39;;;;;;;0.50;0.50;;;;;;;;;;6201510;23;20027;-50
2022/04/19 10:16:12;;;;;;;0.63;0.60;;;;;;;;;;6200519;23;20009;-52
2022/04/19 10:18:39;;;;;;;0.50;0.50;;;;;;;;;;6201405;23;20020;-49
2022/04/19 10:21:07;;;;;;;0.75;0.50;;;;;;;;;;6199192;23;20077;-50
2022/04/19 10:23:35;;;;;;;0.63;0.57;;;;;;;;;;6199883;23;20005;-52
2022/04/19 10:26:20;;;;;;;0.40;0.40;;;;;;;;;;6203290;23;20000;-52
2022/04/19 10:28:48;;;;;;;0.40;0.40;;;;;;;;;;6207195;23;20007;-49
2022/04/19 10:31:14;;;;;;;0.45;0.45;;;;;;;;;;6206161;23;20058;-49
2022/04/19 10:33:40;;;;;;;1.23;0.60;;;;;;;;;;6206784;23;20472;-52
2022/04/19 10:36:30;;;;;;;0.70;0.60;;;;;;;;;;6206662;23;20401;-50
2022/04/19 10:39:08;;;;;;;1.27;0.90;;;;;;;;;;6203849;23;20015;-52
2022/04/19 10:41:53;;;;;;;0.40;0.40;;;;;;;;;;6206111;23;20327;-49
2022/04/19 10:44:20;;;;;;;;;;;;;;;;;;6206699;23;19997;-49
2022/04/19 10:46:46;;;;;;;0.60;0.60;;;;;;;;;;6205420;23;19903;-48
2022/04/19 10:49:24;;;;;;;0.50;0.50;;;;;;;;;;6207324;23;19997;-50
2022/04/19 10:51:52;;;;;;;0.55;0.55;;;;;;;;;;6206757;23;20032;-52
2022/04/19 10:54:38;;;;;;;0.60;0.60;;;;;;;;;;6207063;23;20004;-51
2022/04/19 10:58:05;;;;;;;0.60;0.60;;;;;;;;;;6206228;23;20012;-52
2022/04/19 11:00:19;;;;;;;0.70;0.50;;;;;;;;;;6205276;23;20096;-49
2022/04/19 11:02:56;;;;;;;0.70;0.50;;;;;;;;;;6205191;23;20058;-53
2022/04/19 11:05:34;;;;;;;0.60;0.60;;;;;;;;;;6204467;23;20404;-52
2022/04/19 11:08:19;;;;;;;0.45;0.45;;;;;;;;;;6178604;23;20009;-51
2022/04/19 11:10:45;;;;;;;0.88;0.60;;;;;;;;;;6204897;23;20334;-51
2022/04/19 11:13:11;;;;;;;0.70;0.70;;;;;;;;;;6206157;23;20008;-52
2022/04/19 11:15:38;;;;;;;0.80;0.80;;;;;;;;;;6205493;23;20004;-51
2022/04/19 11:18:22;;;;;;;2.30;0.90;;;;;;;;;;6206735;23;20110;-51
2022/04/19 11:20:49;;;;;;;0.63;0.60;;;;;;;;;;6206750;23;20001;-51
2022/04/19 11:23:19;;;;;;;0.80;0.70;;;;;;;;;;6207584;23;20028;-52
2022/04/19 11:25:46;;;;;;;0.90;0.60;;;;;;;;;;6206431;23;19997;-51
2022/04/19 11:28:12;;;;;;;1.00;0.65;;;;;;;;;;6207993;23;20005;-52
2022/04/19 11:31:00;;;;;;;1.00;0.60;;;;;;;;;;6207407;23;20074;-51
2022/04/19 11:33:28;;;;;;;0.60;0.60;;;;;;;;;;6182833;23;20400;-51
2022/04/19 11:36:09;;;;;;;0.57;0.50;;;;;;;;;;6206986;23;20012;-49
2022/04/19 11:38:40;;;;;;;0.65;0.65;;;;;;;;;;6207071;23;20059;-49
2022/04/19 11:46:45;;;;;;;0.28;0.28;;;;;;;;;;6206999;23;20012;-51
2022/04/19 11:49:11;;;;;;;;;;;;;;;;;;6208254;23;20043;-50
2022/04/19 11:51:38;;;;;;;0.50;0.50;;;;;;;;;;6206870;23;19900;-50
2022/04/19 11:54:05;;;;;;;0.43;0.40;;;;;;;;;;6206951;23;20094;-52
2022/04/19 11:56:32;;;;;;;0.60;0.40;;;;;;;;;;6206211;23;20005;-49
2022/04/19 11:59:02;;;;;;;0.30;0.30;;;;;;;;;;6206747;23;20005;-52
2022/04/19 12:01:28;;;;;;;0.50;0.50;;;;;;;;;;6206358;23;20515;-52
2022/04/19 12:03:55;;;;;;;0.28;0.28;;;;;;;;;;6206806;23;20087;-50
2022/04/19 12:06:22;;;;;;;0.30;0.30;;;;;;;;;;6206714;23;20032;-52
2022/04/19 12:08:50;;;;;;;0.35;0.35;;;;;;;;;;6206679;23;20000;-52
2022/04/19 12:11:20;;;;;;;0.40;0.40;;;;;;;;;;6206268;23;20008;-50
2022/04/19 12:13:48;;;;;;;0.88;0.47;;;;;;;;;;6206469;23;20004;-48
2022/04/19 12:16:31;;;;;;;0.45;0.40;;;;;;;;;;6206953;23;20008;-49
2022/04/19 12:19:04;;;;;;;0.30;0.30;;;;;;;;;;6206443;23;20020;-53
2022/04/19 12:21:48;;;;;;;0.47;0.40;;;;;;;;;;6205999;23;20005;-50
2022/04/19 12:24:17;;;;;;;0.43;0.40;;;;;;;;;;6206505;23;20001;-52
2022/04/19 12:26:45;;;;;;;0.30;0.30;;;;;;;;;;6206094;23;20536;-50
2022/04/19 12:29:12;;;;;;;0.50;0.50;;;;;;;;;;6207058;23;20442;-51
2022/04/19 12:31:39;;;;;;;0.30;0.30;;;;;;;;;;6206934;23;20477;-50
2022/04/19 12:34:06;;;;;;;1.23;0.50;;;;;;;;;;6206490;23;20008;-51
2022/04/19 12:36:48;;;;;;;0.63;0.43;;;;;;;;;;6205385;23;20514;-49
2022/04/19 12:39:16;;;;;;;0.47;0.47;;;;;;;;;;6206771;23;20035;-50
2022/04/19 12:41:43;;;;;;;0.68;0.68;;;;;;;;;;6205636;23;20005;-50
2022/04/19 12:44:10;;;;;;;0.60;0.50;;;;;;;;;;6207439;23;20378;-51
2022/04/19 12:46:40;;;;;;;0.50;0.50;;;;;;;;;;6205595;23;20012;-50
2022/04/19 12:49:07;;;;;;;0.57;0.57;;;;;;;;;;6206064;23;20000;-49
2022/04/19 12:51:37;;;;;;;0.40;0.40;;;;;;;;;;6206350;23;20005;-49
2022/04/19 12:54:06;;;;;;;0.40;0.40;;;;;;;;;;6206068;23;20009;-53
2022/04/19 12:56:33;;;;;;;0.45;0.45;;;;;;;;;;6205199;23;20466;-50
2022/04/19 12:58:59;;;;;;;0.43;0.40;;;;;;;;;;6206127;23;20008;-52
2022/04/19 13:01:25;;;;;;;0.55;0.52;;;;;;;;;;6206788;23;20012;-50
2022/04/19 13:03:52;;;;;;;0.47;0.43;;;;;;;;;;6207501;23;20400;-51
2022/04/19 13:14:33;;;;;;;0.50;0.50;;;;;;;;;;6206976;23;20059;-52
2022/04/19 13:16:59;;;;;;;0.43;0.43;;;;;;;;;;6207697;23;20063;-53
2022/04/19 13:19:25;;;;;;;0.50;0.50;;;;;;;;;;6205994;23;20309;-54
2022/04/19 13:21:52;;;;;;;0.43;0.43;;;;;;;;;;6206194;23;20040;-54
2022/04/19 13:24:18;;;;;;;0.50;0.50;;;;;;;;;;6206361;23;20088;-54
2022/04/19 13:26:44;;;;;;;0.40;0.40;;;;;;;;;;6207090;23;20046;-54
2022/04/19 13:29:11;;;;;;;0.30;0.30;;;;;;;;;;6208138;23;20004;-56
2022/04/19 13:31:37;;;;;;;0.40;0.40;;;;;;;;;;6207092;23;20012;-54
2022/04/19 13:34:04;;;;;;;0.73;0.50;;;;;;;;;;6206622;23;20012;-53
2022/04/19 13:36:30;;;;;;;0.40;0.40;;;;;;;;;;6206299;23;20004;-54
2022/04/19 13:38:56;;;;;;;0.43;0.30;;;;;;;;;;6206307;23;20004;-54
2022/04/19 13:41:22;;;;;;;0.50;0.50;;;;;;;;;;6179971;23;20015;-53
2022/04/19 13:43:51;;;;;;;0.38;0.38;;;;;;;;;;6205801;23;20091;-54
2022/04/19 13:46:17;;;;;;;0.60;0.60;;;;;;;;;;6177393;23;20000;-54
2022/04/19 13:48:43;;;;;;;0.40;0.40;;;;;;;;;;6204336;23;20080;-54
2022/04/19 13:51:09;;;;;;;0.40;0.40;;;;;;;;;;6205572;23;20090;-54
2022/04/19 13:53:36;;;;;;;0.50;0.50;;;;;;;;;;6204454;23;20036;-55
2022/04/19 13:56:03;;;;;;;0.60;0.50;;;;;;;;;;6204667;23;20009;-53
2022/04/19 13:58:29;;;;;;;0.50;0.50;;;;;;;;;;6204861;23;20000;-55
2022/04/19 14:00:55;;;;;;;0.88;0.60;;;;;;;;;;6205119;23;20012;-54
2022/04/19 14:03:21;;;;;;;0.50;0.50;;;;;;;;;;6204376;23;20004;-54
2022/04/19 14:05:48;;;;;;;0.50;0.50;;;;;;;;;;6204520;23;20032;-54
2022/04/19 14:08:15;;;;;;;2.65;0.80;;;;;;;;;;6204062;23;20162;-54
2022/04/19 14:10:41;;;;;;;0.50;0.47;;;;;;;;;;6178518;23;20080;-55
2022/04/19 14:13:07;;;;;;;0.50;0.50;;;;;;;;;;6178783;23;20012;-55
2022/04/19 14:15:33;;;;;;;0.55;0.52;;;;;;;;;;6204724;23;20016;-55
2022/04/19 14:17:59;;;;;;;0.63;0.57;;;;;;;;;;6204999;23;20574;-55
2022/04/19 14:20:26;;;;;;;0.65;0.45;;;;;;;;;;6203755;23;20035;-55
2022/04/19 14:22:53;;;;;;;0.70;0.40;;;;;;;;;;6204460;23;20072;-55
2022/04/19 14:25:19;;;;;;;1.27;0.40;;;;;;;;;;6178403;23;20009;-55
2022/04/19 14:27:46;;;;;;;0.45;0.45;;;;;;;;;;6177826;23;20008;-55
2022/04/19 14:33:15;;;;;;;0.50;0.50;;;;;;;;;;6204381;23;20063;-55
2022/04/19 14:35:43;;;;;;;1.00;0.75;;;;;;;;;;6205487;23;20091;-54
2022/04/19 14:38:09;;;;;;;0.50;0.50;;;;;;;;;;6205195;23;20394;-56
2022/04/19 14:40:35;;;;;;;0.85;0.50;;;;;;;;;;6204436;23;20016;-55
2022/04/19 14:43:01;;;;;;;0.38;0.38;;;;;;;;;;6204157;23;20039;-55
2022/04/19 14:45:27;;;;;;;0.40;0.40;;;;;;;;;;6204620;23;20008;-55
2022/04/19 14:47:53;;;;;;;0.57;0.40;;;;;;;;;;6204632;23;20022;-56
2022/04/19 14:50:19;;;;;;;0.68;0.60;;;;;;;;;;6204354;23;20076;-56
2022/04/19 14:52:48;;;;;;;1.35;0.55;;;;;;;;;;6203602;23;20040;-56
2022/04/19 14:55:15;;;;;;;1.00;0.57;;;;;;;;;;6204153;23;20342;-55
2022/04/19 14:57:42;;;;;;;0.50;0.50;;;;;;;;;;6204472;23;20008;-56
2022/04/19 15:00:08;;;;;;;0.90;0.50;;;;;;;;;;6205377;23;20468;-56
2022/04/19 15:02:35;;;;;;;0.38;0.38;;;;;;;;;;6203766;23;20452;-55
2022/04/19 15:05:04;;;;;;;0.47;0.45;;;;;;;;;;6177364;23;20058;-56
2022/04/19 15:07:31;;;;;;;0.60;0.47;;;;;;;;;;6176773;23;20000;-55
2022/04/19 15:09:57;;;;;;;0.40;0.40;;;;;;;;;;6203760;23;20008;-55
2022/04/19 15:12:24;;;;;;;0.47;0.40;;;;;;;;;;6203841;23;20001;-56
2022/04/19 15:14:50;;;;;;;0.47;0.47;;;;;;;;;;6177404;23;20012;-57
2022/04/19 15:17:16;;;;;;;0.40;0.40;;;;;;;;;;6203601;23;20000;-56
2022/04/19 15:19:42;;;;;;;0.88;0.52;;;;;;;;;;6203633;23;20005;-56
2022/04/19 15:22:09;;;;;;;0.50;0.50;;;;;;;;;;6204747;23;20076;-55
2022/04/19 15:24:37;;;;;;;0.68;0.50;;;;;;;;;;6203460;23;20001;-56
2022/04/19 15:27:03;;;;;;;0.50;0.50;;;;;;;;;;6203466;23;20007;-55
2022/04/19 15:29:30;;;;;;;0.60;0.60;;;;;;;;;;6203727;23;19997;-56
2022/04/19 15:31:58;;;;;;;0.85;0.70;;;;;;;;;;6204251;23;20070;-55